Time;durP1;ratioP1;P1;durP2;ratioP2;P2;SDS_P1;SDS_P2;PMS_P1;PMS_P2;Temp;Humidity;BMP_temperature;BMP_pressure;BME280_temperature;BME280_humidity;BME280_pressure;Samples;Min_cycle;Max_cycle;Signal;HPM_P1;HPM_P2
2021/05/18 00:00:08;;;;;;;12.02;6.88;;;9.40;99.90;;;;;;5032778;28;20056;-89
2021/05/18 00:02:34;;;;;;;19.20;7.28;;;9.40;99.90;;;;;;5015943;28;20075;-90
2021/05/18 00:05:00;;;;;;;10.80;6.55;;;9.40;99.90;;;;;;5032279;28;20072;-89
2021/05/18 00:07:26;;;;;;;15.82;7.00;;;9.40;99.90;;;;;;5017188;28;20150;-88
2021/05/18 00:12:39;;;;;;;15.82;7.18;;;9.40;99.90;;;;;;5033137;28;20508;-89
2021/05/18 00:15:12;;;;;;;17.85;7.55;;;9.40;99.90;;;;;;4999931;28;20052;-90
2021/05/18 00:17:38;;;;;;;22.30;7.25;;;9.40;99.90;;;;;;5033369;28;20120;-91
2021/05/18 00:20:07;;;;;;;16.27;7.10;;;9.40;99.90;;;;;;5032213;28;20068;-89
2021/05/18 00:22:33;;;;;;;12.90;7.82;;;9.40;99.90;;;;;;5033034;28;20124;-88
2021/05/18 00:24:59;;;;;;;14.20;7.60;;;9.40;99.90;;;;;;5015819;28;20049;-88
2021/05/18 00:27:28;;;;;;;14.25;7.63;;;9.40;99.90;;;;;;5050604;28;20037;-89
2021/05/18 00:33:35;;;;;;;13.32;7.13;;;9.40;99.90;;;;;;5337697;22;20068;-96
2021/05/18 00:36:02;;;;;;;17.52;7.40;;;9.20;99.90;;;;;;5014746;28;20043;-93
2021/05/18 00:38:33;;;;;;;12.77;6.72;;;9.40;99.90;;;;;;5023743;28;20114;-96
2021/05/18 00:41:04;;;;;;;;;;;9.40;99.90;;;;;;5038715;28;20045;-96
2021/05/18 00:43:32;;;;;;;9.98;6.78;;;9.30;99.90;;;;;;5054757;28;20367;-96
2021/05/18 00:45:59;;;;;;;10.80;7.25;;;9.30;99.90;;;;;;5006187;28;20547;-94
2021/05/18 00:48:25;;;;;;;11.90;6.82;;;9.50;99.90;;;;;;5038710;28;20037;-96
2021/05/18 00:50:54;;;;;;;21.77;7.47;;;9.30;99.90;;;;;;5051410;28;20134;-95
2021/05/18 00:53:22;;;;;;;12.35;6.78;;;9.30;99.90;;;;;;5033709;28;20041;-94
2021/05/18 00:58:33;;;;;;;16.10;7.07;;;9.30;99.90;;;;;;5051422;28;20469;-95
2021/05/18 01:01:10;;;;;;;14.15;7.10;;;9.30;99.90;;;;;;5050595;28;20053;-94
2021/05/18 01:03:38;;;;;;;11.23;7.13;;;9.30;99.90;;;;;;5051991;28;20477;-95
2021/05/18 01:08:55;;;;;;;21.98;7.20;;;9.30;99.90;;;;;;5051595;28;19925;-95
2021/05/18 01:11:31;;;;;;;11.85;6.85;;;9.30;99.90;;;;;;5033456;28;20040;-96
2021/05/18 01:14:01;;;;;;;12.45;7.13;;;9.30;99.90;;;;;;5051972;28;20527;-94
2021/05/18 01:16:29;;;;;;;21.45;6.68;;;9.30;99.90;;;;;;5052579;28;20052;-96
2021/05/18 01:18:56;;;;;;;18.13;6.95;;;9.30;99.90;;;;;;5033898;28;20412;-94
2021/05/18 01:21:24;;;;;;;17.70;7.00;;;9.40;99.90;;;;;;5050712;28;20121;-96
2021/05/18 01:23:50;;;;;;;10.75;7.40;;;9.30;99.90;;;;;;5034398;28;20059;-93
2021/05/18 01:26:16;;;;;;;13.68;7.25;;;9.30;99.90;;;;;;5032980;28;20037;-95
2021/05/18 01:28:42;;;;;;;22.40;7.90;;;9.30;99.90;;;;;;5017764;28;20049;-95
2021/05/18 01:31:10;;;;;;;14.13;8.27;;;9.30;99.90;;;;;;5017557;28;20056;-95
2021/05/18 01:33:36;;;;;;;17.42;8.27;;;9.30;99.90;;;;;;5018950;28;20432;-96
2021/05/18 01:36:04;;;;;;;13.25;8.25;;;9.40;99.90;;;;;;5038262;28;20037;-94
2021/05/18 01:39:26;;;;;;;10.77;7.72;;;9.40;99.90;;;;;;5050532;28;20489;-92
2021/05/18 01:44:07;;;;;;;12.20;8.15;;;9.40;99.90;;;;;;5032045;28;20045;-93
2021/05/18 01:46:33;;;;;;;10.75;8.15;;;9.40;99.90;;;;;;5022098;28;20412;-96
2021/05/18 01:49:02;;;;;;;11.93;7.93;;;9.40;99.90;;;;;;5001092;28;20045;-93
2021/05/18 01:51:31;;;;;;;15.43;8.35;;;9.40;99.90;;;;;;5032948;28;20131;-94
2021/05/18 01:53:59;;;;;;;10.15;7.95;;;9.40;99.90;;;;;;5051239;28;20045;-96
2021/05/18 01:59:05;;;;;;;12.45;8.57;;;9.40;99.90;;;;;;5027491;28;20041;-95
2021/05/18 02:01:31;;;;;;;13.02;7.85;;;9.40;99.90;;;;;;5030921;28;20080;-95
2021/05/18 02:03:58;;;;;;;13.68;7.75;;;9.40;99.90;;;;;;5031207;28;20053;-93
2021/05/18 02:06:24;;;;;;;10.57;7.68;;;9.40;99.90;;;;;;5030285;28;20064;-91
2021/05/18 02:08:50;;;;;;;10.25;7.70;;;9.40;99.90;;;;;;5041918;28;20107;-92
2021/05/18 02:11:16;;;;;;;16.25;8.10;;;9.40;99.90;;;;;;5015889;28;20064;-93
2021/05/18 02:13:47;;;;;;;15.95;8.38;;;9.40;99.90;;;;;;5016540;28;20065;-94
2021/05/18 02:16:59;;;;;;;8.73;7.28;;;9.40;99.90;;;;;;5032966;28;20060;-92
2021/05/18 02:20:04;;;;;;;14.15;8.65;;;9.40;99.90;;;;;;5015986;28;20049;-94
2021/05/18 02:27:01;;;;;;;9.95;7.40;;;9.40;99.90;;;;;;5033957;28;20113;-96
2021/05/18 02:29:26;;;;;;;10.88;8.68;;;9.40;99.90;;;;;;5000729;28;20120;-94
2021/05/18 02:31:55;;;;;;;12.18;7.68;;;9.40;99.90;;;;;;5037153;28;20050;-94
2021/05/18 02:34:21;;;;;;;11.05;7.10;;;9.40;99.90;;;;;;5017154;28;20068;-95
2021/05/18 02:36:48;;;;;;;14.23;7.70;;;9.40;99.90;;;;;;5000867;28;20466;-93
2021/05/18 02:39:13;;;;;;;9.20;6.75;;;9.40;99.90;;;;;;5033263;28;20148;-94
2021/05/18 02:41:39;;;;;;;9.90;7.65;;;9.40;99.90;;;;;;5017073;28;20049;-94
2021/05/18 02:44:11;;;;;;;11.20;7.40;;;9.40;99.90;;;;;;5033679;28;20047;-94
2021/05/18 02:49:23;;;;;;;8.70;7.13;;;9.40;99.90;;;;;;5019510;28;20041;-95
2021/05/18 02:51:50;;;;;;;10.40;7.35;;;9.30;99.90;;;;;;5034007;28;20045;-95
2021/05/18 02:54:24;;;;;;;13.77;8.00;;;9.30;99.90;;;;;;5033183;28;20474;-94
2021/05/18 02:56:56;;;;;;;9.95;7.18;;;9.20;99.90;;;;;;5034278;28;20065;-94
2021/05/18 02:59:22;;;;;;;11.68;7.68;;;9.20;99.90;;;;;;5033037;28;20044;-93
2021/05/18 03:01:54;;;;;;;13.48;7.45;;;9.20;99.90;;;;;;5033777;28;20041;-94
2021/05/18 03:04:21;;;;;;;9.15;6.70;;;9.10;99.90;;;;;;5033425;28;20080;-93
2021/05/18 03:06:49;;;;;;;13.02;6.93;;;9.00;99.90;;;;;;5035085;28;20049;-93
2021/05/18 03:09:16;;;;;;;14.00;7.20;;;8.90;99.90;;;;;;5034420;28;20057;-93
2021/05/18 03:11:43;;;;;;;11.80;6.78;;;8.80;99.90;;;;;;5034163;28;20064;-95
2021/05/18 03:14:11;;;;;;;11.13;7.07;;;8.70;99.90;;;;;;5017326;28;20041;-95
2021/05/18 03:16:39;;;;;;;11.52;7.75;;;8.70;99.90;;;;;;5034065;28;20072;-94
2021/05/18 03:19:07;;;;;;;11.15;7.47;;;8.60;99.90;;;;;;5016525;28;20116;-95
2021/05/18 03:21:33;;;;;;;12.73;8.10;;;8.60;99.90;;;;;;5033953;28;20104;-95
2021/05/18 03:23:59;;;;;;;16.52;7.78;;;8.50;99.90;;;;;;5017062;28;20635;-95
2021/05/18 03:26:34;;;;;;;13.70;8.05;;;8.50;99.90;;;;;;5017100;28;20045;-96
2021/05/18 03:29:22;;;;;;;12.80;7.15;;;8.40;99.90;;;;;;5034129;28;20136;-93
2021/05/18 03:34:37;;;;;;;10.52;7.63;;;8.30;99.90;;;;;;5030645;28;20049;-92
2021/05/18 03:39:42;;;;;;;11.57;7.47;;;8.20;99.90;;;;;;5027677;28;20045;-93
2021/05/18 03:42:15;;;;;;;10.20;7.68;;;8.10;99.90;;;;;;5031260;28;20045;-94
2021/05/18 03:53:02;;;;;;;11.63;8.00;;;7.90;99.90;;;;;;5016773;28;20037;-94
2021/05/18 04:17:00;;;;;;;9.73;7.32;;;7.60;99.90;;;;;;5032119;28;20359;-92
2021/05/18 04:19:40;;;;;;;13.02;8.07;;;7.60;99.90;;;;;;5031244;28;20414;-94
2021/05/18 04:51:44;;;;;;;13.15;7.72;;;7.60;99.90;;;;;;5051875;28;20048;-94
2021/05/18 04:54:46;;;;;;;16.05;8.40;;;7.60;99.90;;;;;;5005730;28;20072;-93
2021/05/18 04:59:59;;;;;;;16.05;8.27;;;7.70;99.90;;;;;;5037379;28;20045;-92
2021/05/18 05:10:29;;;;;;;16.55;9.25;;;7.90;99.90;;;;;;5052557;28;20119;-94
2021/05/18 05:15:21;;;;;;;12.10;8.48;;;8.00;99.90;;;;;;5034934;28;20044;-94
2021/05/18 05:17:47;;;;;;;13.27;8.57;;;8.10;99.90;;;;;;5017636;28;20041;-93
2021/05/18 05:20:13;;;;;;;11.52;8.63;;;8.00;99.90;;;;;;5017271;28;20087;-93
2021/05/18 05:22:38;;;;;;;14.75;7.82;;;8.10;99.90;;;;;;5016407;28;20057;-93
2021/05/18 05:25:05;;;;;;;11.43;8.00;;;8.10;99.90;;;;;;5016948;28;20045;-93
2021/05/18 05:27:30;;;;;;;16.45;10.00;;;8.20;99.90;;;;;;5033250;28;20044;-94
2021/05/18 05:29:56;;;;;;;14.07;8.20;;;8.20;99.90;;;;;;5018022;28;20051;-95
2021/05/18 05:32:22;;;;;;;15.25;8.10;;;8.30;99.90;;;;;;5033799;28;20166;-93
2021/05/18 05:34:49;;;;;;;15.13;9.43;;;8.30;99.90;;;;;;5002421;28;20044;-94
2021/05/18 05:37:14;;;;;;;15.50;9.23;;;8.40;99.90;;;;;;5034740;28;20064;-93
2021/05/18 05:39:40;;;;;;;12.77;8.55;;;8.50;99.90;;;;;;5017796;28;20061;-93
2021/05/18 05:42:06;;;;;;;15.38;8.35;;;8.50;99.90;;;;;;5052267;28;20784;-94
2021/05/18 05:44:33;;;;;;;13.93;8.65;;;8.60;99.90;;;;;;5033602;28;20056;-93
2021/05/18 05:46:58;;;;;;;12.88;8.13;;;8.70;99.90;;;;;;5018264;28;20127;-95
2021/05/18 05:49:24;;;;;;;13.52;8.98;;;8.80;99.90;;;;;;5017992;28;20120;-94
2021/05/18 05:51:51;;;;;;;13.88;9.20;;;8.80;99.90;;;;;;5017773;28;20060;-95
2021/05/18 05:54:19;;;;;;;10.90;8.25;;;9.00;99.90;;;;;;5009795;28;20039;-93
2021/05/18 05:56:45;;;;;;;11.75;8.88;;;9.10;99.90;;;;;;5051421;28;20584;-95
2021/05/18 05:59:11;;;;;;;13.38;7.85;;;9.10;99.90;;;;;;5018206;28;20047;-96
2021/05/18 06:01:37;;;;;;;12.40;8.23;;;9.30;99.90;;;;;;5032440;28;20115;-94
2021/05/18 06:04:03;;;;;;;14.30;7.65;;;9.30;99.90;;;;;;5010113;28;20474;-94
2021/05/18 06:06:29;;;;;;;8.40;6.63;;;9.40;99.90;;;;;;5034344;28;20049;-95
2021/05/18 06:08:55;;;;;;;9.10;6.63;;;9.50;99.90;;;;;;5034347;28;20048;-93
2021/05/18 06:11:28;;;;;;;10.27;6.55;;;9.60;99.90;;;;;;5051477;28;20116;-93
2021/05/18 06:48:34;;;;;;;8.82;5.40;;;10.40;99.90;;;;;;5022058;28;20416;-94
2021/05/18 06:51:00;;;;;;;5.78;5.03;;;10.60;99.90;;;;;;5051660;28;20118;-93
2021/05/18 06:53:25;;;;;;;4.78;4.00;;;10.70;99.90;;;;;;5017917;28;20037;-95
2021/05/18 06:55:53;;;;;;;12.65;5.97;;;10.80;99.90;;;;;;5033406;28;20045;-95
2021/05/18 07:01:21;;;;;;;6.45;4.47;;;11.10;99.90;;;;;;5013143;28;20394;-94
2021/05/18 07:03:53;;;;;;;4.63;4.15;;;11.10;99.90;;;;;;5005757;28;20064;-95
2021/05/18 07:09:04;;;;;;;6.72;3.10;;;11.30;99.90;;;;;;5018995;28;20131;-95
2021/05/18 07:11:30;;;;;;;4.55;3.67;;;11.50;99.90;;;;;;5006919;28;20044;-94
2021/05/18 07:13:56;;;;;;;4.18;3.42;;;11.60;99.90;;;;;;5017014;28;20122;-95
2021/05/18 07:16:22;;;;;;;6.63;3.45;;;11.80;99.90;;;;;;5018169;28;20076;-96
2021/05/18 07:18:49;;;;;;;5.72;3.40;;;12.00;99.90;;;;;;5035847;28;20540;-95
2021/05/18 07:21:15;;;;;;;2.33;2.22;;;12.10;99.90;;;;;;5003655;28;20064;-95
2021/05/18 07:23:41;;;;;;;3.55;2.60;;;12.10;99.90;;;;;;5057431;28;20087;-95
2021/05/18 07:26:07;;;;;;;4.97;2.97;;;12.00;99.90;;;;;;5050566;28;20047;-96
2021/05/18 07:28:34;;;;;;;5.45;2.75;;;11.90;99.90;;;;;;5050314;28;20064;-93
2021/05/18 07:31:01;;;;;;;10.63;3.13;;;12.00;99.90;;;;;;5035317;28;20132;-93
2021/05/18 07:33:27;;;;;;;6.88;3.65;;;12.20;99.90;;;;;;5037498;28;20060;-93
2021/05/18 07:35:58;;;;;;;4.28;2.78;;;12.30;99.90;;;;;;5020895;28;20053;-95
2021/05/18 07:38:27;;;;;;;3.90;3.58;;;12.30;99.90;;;;;;5034582;28;20052;-93
2021/05/18 07:40:56;;;;;;;7.45;5.05;;;12.10;99.90;;;;;;5034407;28;20040;-94
2021/05/18 07:43:22;;;;;;;7.10;6.38;;;12.30;99.90;;;;;;5020929;28;20041;-96
2021/05/18 07:45:56;;;;;;;5.32;3.85;;;12.40;99.90;;;;;;5028322;28;20049;-92
2021/05/18 07:48:28;;;;;;;3.50;3.20;;;12.20;99.90;;;;;;5007093;28;20049;-95
2021/05/18 07:59:21;;;;;;;3.95;2.55;;;12.30;99.90;;;;;;4999621;28;20098;-95
2021/05/18 08:07:16;;;;;;;3.88;2.85;;;12.80;99.90;;;;;;5054150;28;20041;-96
2021/05/18 08:09:47;;;;;;;3.42;2.55;;;12.80;99.90;;;;;;5052939;28;20401;-96
2021/05/18 08:12:13;;;;;;;4.50;3.13;;;12.60;99.90;;;;;;5021259;28;20409;-96
2021/05/18 08:14:45;;;;;;;4.55;2.83;;;12.60;99.90;;;;;;5035779;28;20052;-94
2021/05/18 08:17:24;;;;;;;3.67;2.58;;;12.60;99.90;;;;;;5038123;28;20068;-96
2021/05/18 09:49:57;;;;;;;2.33;2.13;;;10.40;99.90;;;;;;5051102;28;20045;-91
2021/05/18 10:35:51;;;;;;;4.78;3.85;;;11.50;99.90;;;;;;5019992;28;20133;-89
2021/05/18 10:38:23;;;;;;;2.78;2.42;;;11.80;99.90;;;;;;5013796;28;20521;-88
2021/05/18 10:40:51;;;;;;;4.13;3.70;;;11.80;99.90;;;;;;5025759;28;20121;-89
2021/05/18 10:43:28;;;;;;;4.05;3.40;;;11.90;99.90;;;;;;5023710;28;20140;-88
2021/05/18 10:45:55;;;;;;;3.78;2.80;;;12.10;99.90;;;;;;5024621;28;20042;-89
2021/05/18 10:48:53;;;;;;;4.63;2.38;;;12.10;99.90;;;;;;5024482;28;20029;-87
2021/05/18 10:51:33;;;;;;;5.63;3.05;;;12.10;99.90;;;;;;5014470;28;20393;-88
2021/05/18 10:54:28;;;;;;;1.88;1.77;;;12.10;99.90;;;;;;5030980;28;20033;-88
2021/05/18 10:56:54;;;;;;;3.28;2.38;;;12.10;99.90;;;;;;5032085;28;20047;-89
2021/05/18 10:59:30;;;;;;;2.40;2.20;;;12.20;99.90;;;;;;5030981;28;20041;-89
2021/05/18 11:02:10;;;;;;;2.60;2.38;;;12.30;99.90;;;;;;5030337;28;20033;-88
2021/05/18 11:04:39;;;;;;;5.63;2.83;;;12.40;99.90;;;;;;5031454;28;20037;-89
2021/05/18 11:07:07;;;;;;;5.90;3.42;;;12.50;99.90;;;;;;5031169;28;20030;-88
2021/05/18 11:09:33;;;;;;;4.00;3.60;;;12.70;99.90;;;;;;5031661;28;20048;-89
2021/05/18 11:12:05;;;;;;;3.58;3.20;;;12.80;99.90;;;;;;5030164;28;20213;-90
2021/05/18 11:14:53;;;;;;;7.15;2.90;;;13.00;99.90;;;;;;5030434;28;20056;-88
2021/05/18 11:17:24;;;;;;;2.80;2.58;;;13.30;99.90;;;;;;5031772;28;20042;-89
2021/05/18 11:20:04;;;;;;;3.45;2.38;;;13.50;99.90;;;;;;5031031;28;20099;-88
2021/05/18 11:26:08;;;;;;;8.60;3.65;;;13.50;99.90;;;;;;5032055;28;20052;-87
2021/05/18 11:28:44;;;;;;;3.83;2.60;;;13.50;99.90;;;;;;5012511;28;20046;-89
2021/05/18 11:31:13;;;;;;;9.00;2.80;;;13.20;99.90;;;;;;5024494;28;20037;-90
2021/05/18 11:33:42;;;;;;;15.45;4.43;;;13.00;99.90;;;;;;5030360;28;20049;-92
2021/05/18 11:36:16;;;;;;;47.40;5.40;;;12.70;99.90;;;;;;5016998;28;20121;-94
2021/05/18 11:38:51;;;;;;;28.80;5.80;;;12.20;99.90;;;;;;5013096;28;20045;-94
2021/05/18 11:41:23;;;;;;;23.85;5.15;;;11.70;99.90;;;;;;5015288;28;20037;-92
2021/05/18 11:43:51;;;;;;;24.00;6.78;;;11.30;99.90;;;;;;5031010;28;20489;-92
2021/05/18 11:46:17;;;;;;;18.63;5.05;;;11.40;99.90;;;;;;5030547;28;20184;-90
2021/05/18 11:48:56;;;;;;;16.60;5.35;;;11.50;99.90;;;;;;5029923;28;20061;-89
2021/05/18 11:51:22;;;;;;;17.77;8.20;;;11.50;99.90;;;;;;5029786;28;20427;-93
2021/05/18 11:53:52;;;;;;;21.60;7.97;;;11.70;99.90;;;;;;4985160;28;20152;-89
2021/05/18 11:56:27;;;;;;;11.20;4.97;;;12.10;99.90;;;;;;5020874;28;20095;-91
2021/05/18 11:59:04;;;;;;;19.65;6.13;;;12.40;99.90;;;;;;5017177;28;20076;-88
2021/05/18 12:01:36;;;;;;;18.50;6.70;;;12.70;99.90;;;;;;5034028;28;20114;-89
2021/05/18 12:04:06;;;;;;;6.82;4.70;;;13.10;99.90;;;;;;5029366;28;20103;-90
2021/05/18 12:06:34;;;;;;;4.40;3.60;;;13.20;99.90;;;;;;5029552;28;20049;-89
2021/05/18 12:09:00;;;;;;;4.28;3.85;;;13.50;99.90;;;;;;5029839;28;20041;-91
2021/05/18 12:11:26;;;;;;;6.47;4.30;;;13.60;99.90;;;;;;5031110;28;20041;-90
2021/05/18 12:13:53;;;;;;;7.40;3.20;;;13.90;99.90;;;;;;5013718;28;20048;-90
2021/05/18 12:16:22;;;;;;;7.20;3.53;;;13.80;99.90;;;;;;5029401;28;20047;-90
2021/05/18 12:18:57;;;;;;;5.68;3.47;;;13.70;99.90;;;;;;5013533;28;20493;-91
2021/05/18 12:21:32;;;;;;;3.33;2.40;;;13.40;99.90;;;;;;5029283;28;20477;-91
2021/05/18 12:24:22;;;;;;;6.75;3.80;;;13.20;99.90;;;;;;5030510;28;20045;-91
2021/05/18 12:26:58;;;;;;;6.78;2.97;;;13.40;99.90;;;;;;5031205;28;20050;-91
2021/05/18 12:29:32;;;;;;;8.07;3.50;;;13.50;99.90;;;;;;5029825;28;20057;-90
2021/05/18 12:32:14;;;;;;;6.82;3.28;;;13.70;99.90;;;;;;5029585;28;20046;-89
2021/05/18 12:34:40;;;;;;;4.28;2.90;;;13.90;99.90;;;;;;5029452;28;20061;-90
2021/05/18 12:37:06;;;;;;;5.25;2.80;;;13.80;99.90;;;;;;4995589;28;20465;-89
2021/05/18 12:39:33;;;;;;;4.20;2.95;;;13.80;99.90;;;;;;5030731;28;20144;-89
2021/05/18 12:42:04;;;;;;;5.93;3.22;;;13.70;99.90;;;;;;5028993;28;20379;-89
2021/05/18 12:44:47;;;;;;;8.00;3.08;;;13.70;99.90;;;;;;5030139;28;20054;-89
2021/05/18 12:47:13;;;;;;;4.82;2.72;;;13.60;99.90;;;;;;5028733;28;20427;-89
2021/05/18 12:49:40;;;;;;;3.08;2.67;;;13.30;99.90;;;;;;5013143;28;20046;-89
2021/05/18 12:52:09;;;;;;;6.70;3.08;;;13.00;99.90;;;;;;5028374;28;20041;-89
2021/05/18 12:54:44;;;;;;;2.25;2.15;;;13.10;99.90;;;;;;5030144;28;20483;-90
2021/05/18 12:57:12;;;;;;;3.40;2.50;;;13.00;99.90;;;;;;5029051;28;20046;-92
2021/05/18 13:00:13;;;;;;;3.45;2.50;;;12.70;99.90;;;;;;5029274;28;20429;-89
2021/05/18 13:02:45;;;;;;;6.10;2.85;;;12.30;99.90;;;;;;5009390;28;20076;-90
2021/05/18 13:05:16;;;;;;;4.03;2.30;;;12.00;99.90;;;;;;5008919;28;20038;-90
2021/05/18 13:07:44;;;;;;;5.30;2.05;;;11.90;99.90;;;;;;5023983;28;20107;-90
2021/05/18 13:10:27;;;;;;;3.95;2.17;;;11.80;99.90;;;;;;5028728;28;20405;-90
2021/05/18 13:13:03;;;;;;;7.20;2.63;;;11.60;99.90;;;;;;5028840;28;20038;-89
2021/05/18 13:15:29;;;;;;;3.88;2.40;;;11.60;99.90;;;;;;5010858;28;20056;-89
2021/05/18 13:17:57;;;;;;;6.72;2.40;;;11.50;99.90;;;;;;5012516;28;20046;-88
2021/05/18 13:20:24;;;;;;;5.75;2.10;;;11.60;99.90;;;;;;5028131;28;20473;-89
2021/05/18 13:22:58;;;;;;;2.95;1.85;;;11.60;99.90;;;;;;5008907;28;20065;-89
2021/05/18 13:28:08;;;;;;;2.88;2.05;;;11.60;99.90;;;;;;5027987;28;20049;-92
2021/05/18 13:30:35;;;;;;;2.78;2.20;;;11.50;99.90;;;;;;5012062;28;20448;-88
2021/05/18 13:33:01;;;;;;;1.92;1.83;;;11.50;99.90;;;;;;5028626;28;20128;-88
2021/05/18 13:35:29;;;;;;;2.80;2.60;;;11.40;99.90;;;;;;5045249;28;20061;-88
2021/05/18 13:37:56;;;;;;;4.28;2.30;;;11.40;99.90;;;;;;5031055;28;20053;-90
2021/05/18 13:40:24;;;;;;;2.00;1.75;;;11.30;99.90;;;;;;5030950;28;20045;-89
2021/05/18 13:42:52;;;;;;;3.80;2.17;;;11.30;99.90;;;;;;5015083;28;20053;-90
2021/05/18 13:45:22;;;;;;;3.65;2.55;;;11.20;99.90;;;;;;5029948;28;20072;-89
2021/05/18 13:47:50;;;;;;;4.72;2.35;;;11.20;99.90;;;;;;5031669;28;20256;-89
2021/05/18 13:50:16;;;;;;;6.75;2.40;;;11.20;99.90;;;;;;5048790;28;20606;-89
2021/05/18 13:52:41;;;;;;;2.15;1.95;;;11.20;99.90;;;;;;5049003;28;20044;-89
2021/05/18 13:55:08;;;;;;;3.17;1.90;;;11.30;99.90;;;;;;5031378;28;20190;-89
2021/05/18 13:57:34;;;;;;;3.70;2.28;;;11.30;99.90;;;;;;5030601;28;20124;-88
2021/05/18 14:00:00;;;;;;;2.03;1.92;;;11.30;99.90;;;;;;5049382;28;20049;-89
2021/05/18 14:02:27;;;;;;;4.20;1.90;;;11.30;99.90;;;;;;5014329;28;20098;-88
2021/05/18 14:04:53;;;;;;;2.90;2.10;;;11.30;99.90;;;;;;5031427;28;20116;-88
2021/05/18 14:10:17;;;;;;;5.25;2.90;;;11.30;99.90;;;;;;5020257;28;20049;-88
2021/05/18 14:12:43;;;;;;;5.03;3.10;;;11.30;99.90;;;;;;5031840;28;20045;-88
2021/05/18 14:15:10;;;;;;;3.53;2.78;;;11.40;99.90;;;;;;4995161;28;20085;-89
2021/05/18 14:17:36;;;;;;;4.18;2.65;;;11.40;99.90;;;;;;5027537;28;20041;-89
2021/05/18 14:20:03;;;;;;;4.38;2.58;;;11.50;99.90;;;;;;5031082;28;20044;-89
2021/05/18 14:22:30;;;;;;;2.22;2.00;;;11.60;99.90;;;;;;5048318;28;20044;-88
2021/05/18 14:27:21;;;;;;;2.13;2.03;;;11.70;99.90;;;;;;5018071;28;20060;-89
2021/05/18 14:29:48;;;;;;;3.45;2.20;;;11.70;99.90;;;;;;5053283;28;20392;-89
2021/05/18 14:32:14;;;;;;;4.75;1.85;;;11.70;99.90;;;;;;5053161;28;20045;-89
2021/05/18 14:34:41;;;;;;;1.77;1.67;;;11.70;99.90;;;;;;5052680;28;20060;-88
2021/05/18 14:37:07;;;;;;;2.17;2.05;;;11.80;99.90;;;;;;5050256;28;20492;-88
2021/05/18 14:45:04;;;;;;;3.85;2.75;;;11.80;99.90;;;;;;5043661;28;20037;-90
2021/05/18 14:48:05;;;;;;;3.40;2.33;;;11.80;99.90;;;;;;5045926;28;20097;-92
2021/05/18 14:55:48;;;;;;;4.00;2.10;;;11.80;99.90;;;;;;5053001;28;20116;-87
2021/05/18 14:58:16;;;;;;;6.22;2.35;;;11.80;99.90;;;;;;5029609;28;20557;-86
2021/05/18 15:00:43;;;;;;;4.75;2.70;;;11.80;99.90;;;;;;5014711;28;20092;-86
2021/05/18 15:03:12;;;;;;;4.57;2.83;;;11.80;99.90;;;;;;5017779;28;20495;-88
2021/05/18 15:05:38;;;;;;;3.88;2.47;;;11.80;99.90;;;;;;5033805;28;20051;-86
2021/05/18 15:08:07;;;;;;;3.17;2.25;;;11.90;99.90;;;;;;5033987;28;20045;-87
2021/05/18 15:10:34;;;;;;;2.95;2.50;;;11.90;99.90;;;;;;5034363;28;20045;-89
2021/05/18 15:13:00;;;;;;;4.43;2.30;;;11.90;99.90;;;;;;5034751;28;20099;-88
2021/05/18 15:15:27;;;;;;;3.95;2.78;;;11.90;99.90;;;;;;5033814;28;20044;-88
2021/05/18 15:17:56;;;;;;;3.17;1.98;;;11.90;99.90;;;;;;5052466;28;20044;-88
2021/05/18 15:20:22;;;;;;;1.73;1.63;;;11.80;99.90;;;;;;5017781;28;20064;-89
2021/05/18 15:22:48;;;;;;;2.70;2.08;;;11.80;99.90;;;;;;5018285;28;20111;-88
2021/05/18 15:25:15;;;;;;;4.15;2.22;;;11.80;99.90;;;;;;5018272;28;20033;-88
2021/05/18 15:27:42;;;;;;;3.40;2.10;;;11.90;99.90;;;;;;5033713;28;20645;-86
2021/05/18 15:30:09;;;;;;;2.33;2.13;;;12.00;99.90;;;;;;5052256;28;20075;-88
2021/05/18 15:32:36;;;;;;;2.55;2.35;;;12.00;99.90;;;;;;5013520;28;20065;-87
2021/05/18 15:35:02;;;;;;;6.50;2.15;;;12.00;99.90;;;;;;5031192;28;20080;-87
2021/05/18 15:37:28;;;;;;;4.63;2.33;;;12.00;99.90;;;;;;5045936;28;20045;-89
2021/05/18 15:39:54;;;;;;;3.40;1.60;;;12.10;99.90;;;;;;5017243;28;20132;-89
2021/05/18 15:42:19;;;;;;;2.03;1.75;;;12.30;99.90;;;;;;5018034;28;20116;-89
2021/05/18 15:44:46;;;;;;;5.00;1.50;;;12.50;99.90;;;;;;5034386;28;20076;-89
2021/05/18 15:47:12;;;;;;;3.88;1.67;;;12.60;99.90;;;;;;5018359;28;20053;-91
2021/05/18 15:49:38;;;;;;;2.67;1.48;;;12.70;99.90;;;;;;5017297;28;20055;-89
2021/05/18 15:52:04;;;;;;;2.35;1.60;;;12.80;99.90;;;;;;5048447;28;20051;-94
2021/05/18 15:54:30;;;;;;;3.35;1.77;;;12.90;99.90;;;;;;4998906;28;20481;-93
2021/05/18 15:56:55;;;;;;;4.00;1.65;;;13.00;99.90;;;;;;5034708;28;20040;-94
2021/05/18 15:59:23;;;;;;;2.25;1.17;;;13.20;99.90;;;;;;5023080;28;20108;-96
2021/05/18 16:01:49;;;;;;;5.82;2.10;;;13.10;99.90;;;;;;5042148;28;20048;-95
2021/05/18 16:04:15;;;;;;;3.47;2.13;;;13.20;99.90;;;;;;5044805;28;20405;-93
2021/05/18 16:06:42;;;;;;;5.47;2.05;;;13.40;99.90;;;;;;5037976;28;20045;-91
2021/05/18 16:09:10;;;;;;;1.38;1.27;;;13.40;99.90;;;;;;5037363;28;20072;-94
2021/05/18 16:11:37;;;;;;;1.30;1.30;;;13.30;99.90;;;;;;5016197;28;20128;-93
2021/05/18 16:14:03;;;;;;;1.70;1.60;;;13.30;99.90;;;;;;5046902;28;20037;-94
2021/05/18 16:16:29;;;;;;;5.28;1.58;;;13.40;99.90;;;;;;5036085;28;20052;-95
2021/05/18 16:18:55;;;;;;;2.15;1.60;;;13.50;99.90;;;;;;5020283;28;20040;-95
2021/05/18 16:21:23;;;;;;;2.40;1.50;;;13.40;99.90;;;;;;5022108;28;20064;-95
2021/05/18 16:23:51;;;;;;;3.70;1.80;;;13.10;99.90;;;;;;5026379;28;20048;-96
2021/05/18 16:26:19;;;;;;;2.35;1.63;;;13.10;99.90;;;;;;5027260;28;20045;-96
2021/05/18 16:28:46;;;;;;;2.88;2.05;;;13.10;99.90;;;;;;5054660;28;20041;-96
2021/05/18 16:31:20;;;;;;;2.67;1.75;;;13.20;99.90;;;;;;5058167;28;20078;-96
2021/05/18 16:33:54;;;;;;;3.70;2.13;;;13.30;99.90;;;;;;5035707;28;20105;-96
2021/05/18 16:36:26;;;;;;;3.72;1.70;;;13.40;99.90;;;;;;5068300;28;20017;-96
2021/05/18 16:38:55;;;;;;;3.30;1.70;;;13.50;99.90;;;;;;5052587;28;20037;-96
2021/05/18 16:41:22;;;;;;;2.10;1.50;;;13.60;99.90;;;;;;5100709;22;20040;-96
2021/05/18 16:43:48;;;;;;;2.17;1.50;;;13.50;99.90;;;;;;5316114;22;20131;-95
2021/05/18 16:46:14;;;;;;;1.60;1.50;;;13.50;99.90;;;;;;5441121;22;20071;-96
2021/05/18 16:48:41;;;;;;;3.22;1.70;;;13.60;99.90;;;;;;5091007;23;20058;-94
2021/05/18 16:51:09;;;;;;;3.13;1.80;;;13.60;99.90;;;;;;5473969;22;20152;-96
2021/05/18 16:54:11;;;;;;;1.88;1.55;;;13.70;99.90;;;;;;4564642;23;20316;-94
2021/05/18 16:56:46;;;;;;;4.05;1.88;;;13.60;99.90;;;;;;5659778;23;20044;-96
2021/05/18 16:59:12;;;;;;;2.60;1.70;;;13.70;99.90;;;;;;5343698;23;20046;-96
2021/05/18 17:10:28;;;;;;;3.70;2.03;;;13.80;99.90;;;;;;1757460;23;20252;-94
2021/05/18 17:19:44;;;;;;;1.90;1.60;;;13.80;99.90;;;;;;5804971;23;20055;31
2021/05/18 17:25:19;;;;;;;4.03;1.95;;;14.00;99.90;;;;;;5813326;23;20995;31
2021/05/18 17:27:54;;;;;;;3.15;1.95;;;14.10;99.90;;;;;;5616154;23;20061;-94
2021/05/18 17:30:32;;;;;;;4.45;2.10;;;14.10;99.90;;;;;;5832016;23;20058;-91
2021/05/18 17:32:58;;;;;;;2.13;1.90;;;14.10;99.90;;;;;;4839962;29;20113;-91
2021/05/18 17:35:28;;;;;;;4.35;1.83;;;13.90;99.90;;;;;;4828417;29;20049;-91
2021/05/18 17:37:55;;;;;;;4.20;1.88;;;13.80;99.90;;;;;;4843656;29;20050;-90
2021/05/18 17:40:21;;;;;;;3.47;1.83;;;13.80;99.90;;;;;;4847473;29;20060;-90
2021/05/18 17:42:47;;;;;;;1.63;1.52;;;13.80;99.90;;;;;;4858644;29;20049;-93
2021/05/18 17:45:14;;;;;;;5.80;1.60;;;13.70;99.90;;;;;;4842100;29;20053;-92
2021/05/18 17:47:41;;;;;;;2.17;1.80;;;13.70;99.90;;;;;;4859201;29;20106;-90
2021/05/18 17:50:09;;;;;;;2.25;1.73;;;13.80;99.90;;;;;;4842179;29;20045;-92
2021/05/18 17:52:35;;;;;;;1.98;1.73;;;13.70;99.90;;;;;;4825237;29;20049;-91
2021/05/18 17:55:02;;;;;;;4.90;1.80;;;13.60;99.90;;;;;;4794583;29;20135;-92
2021/05/18 17:57:27;;;;;;;3.78;1.77;;;13.40;99.90;;;;;;4818368;29;20053;-92
2021/05/18 17:59:53;;;;;;;2.50;1.80;;;13.20;99.90;;;;;;4841046;29;20046;-92
2021/05/18 18:02:19;;;;;;;1.88;1.70;;;13.10;99.90;;;;;;4837592;29;20106;-92
2021/05/18 18:04:45;;;;;;;2.28;1.60;;;12.80;99.90;;;;;;4828562;29;20502;-92
2021/05/18 18:07:11;;;;;;;4.47;2.25;;;12.60;99.90;;;;;;4825751;29;20054;-94
2021/05/18 18:09:42;;;;;;;3.08;2.38;;;12.50;99.90;;;;;;4839562;29;20061;-93
2021/05/18 18:12:09;;;;;;;2.75;2.05;;;12.40;99.90;;;;;;4826763;29;20490;-93
2021/05/18 18:14:36;;;;;;;2.65;1.90;;;12.50;99.90;;;;;;4825601;29;20050;-93
2021/05/18 18:17:11;;;;;;;1.88;1.67;;;12.70;99.90;;;;;;4826614;29;20046;-93
2021/05/18 18:19:39;;;;;;;2.33;1.83;;;12.90;99.90;;;;;;4838005;29;20049;-93
2021/05/18 18:22:05;;;;;;;2.00;1.85;;;12.80;99.90;;;;;;4843984;29;20075;-95
2021/05/18 18:24:33;;;;;;;2.40;1.60;;;12.80;99.90;;;;;;4843340;29;20200;-92
2021/05/18 18:26:59;;;;;;;3.78;1.70;;;12.60;99.90;;;;;;4861560;29;20080;-92
2021/05/18 18:29:24;;;;;;;2.83;1.80;;;12.40;99.90;;;;;;4861597;29;20072;-92